sensor_id;sensor_type;location;lat;lon;timestamp;P1;durP1;ratioP1;P2;durP2;ratioP2
7359;SDS011;3720;48.274;7.796;2022-07-29T00:01:18;6.43;;;5.50;;
7359;SDS011;3720;48.274;7.796;2022-07-29T00:03:50;8.10;;;5.60;;
7359;SDS011;3720;48.274;7.796;2022-07-29T00:06:24;8.73;;;5.40;;
7359;SDS011;3720;48.274;7.796;2022-07-29T00:08:56;7.57;;;5.70;;
7359;SDS011;3720;48.274;7.796;2022-07-29T00:11:28;8.40;;;5.35;;
7359;SDS011;3720;48.274;7.796;2022-07-29T00:14:00;7.63;;;5.85;;
7359;SDS011;3720;48.274;7.796;2022-07-29T00:16:32;9.13;;;5.90;;
7359;SDS011;3720;48.274;7.796;2022-07-29T00:19:14;7.90;;;5.55;;
7359;SDS011;3720;48.274;7.796;2022-07-29T00:21:47;7.72;;;5.60;;
7359;SDS011;3720;48.274;7.796;2022-07-29T00:24:19;8.18;;;5.40;;
7359;SDS011;3720;48.274;7.796;2022-07-29T00:26:51;8.85;;;5.35;;
7359;SDS011;3720;48.274;7.796;2022-07-29T00:29:23;8.23;;;5.93;;
7359;SDS011;3720;48.274;7.796;2022-07-29T00:31:55;8.38;;;5.88;;
7359;SDS011;3720;48.274;7.796;2022-07-29T00:34:27;6.90;;;5.28;;
7359;SDS011;3720;48.274;7.796;2022-07-29T00:37:18;7.28;;;5.53;;
7359;SDS011;3720;48.274;7.796;2022-07-29T00:39:51;8.95;;;5.50;;
7359;SDS011;3720;48.274;7.796;2022-07-29T00:42:23;6.53;;;5.82;;
7359;SDS011;3720;48.274;7.796;2022-07-29T00:44:55;6.30;;;5.60;;
7359;SDS011;3720;48.274;7.796;2022-07-29T00:47:27;7.10;;;5.68;;
7359;SDS011;3720;48.274;7.796;2022-07-29T00:49:59;7.80;;;5.50;;
7359;SDS011;3720;48.274;7.796;2022-07-29T00:52:32;8.10;;;5.70;;
7359;SDS011;3720;48.274;7.796;2022-07-29T00:55:08;6.70;;;5.55;;
7359;SDS011;3720;48.274;7.796;2022-07-29T00:57:42;9.68;;;5.90;;
7359;SDS011;3720;48.274;7.796;2022-07-29T01:00:17;9.30;;;5.60;;
7359;SDS011;3720;48.274;7.796;2022-07-29T01:02:51;8.40;;;5.40;;
7359;SDS011;3720;48.274;7.796;2022-07-29T01:05:24;6.97;;;5.55;;
7359;SDS011;3720;48.274;7.796;2022-07-29T01:08:00;5.65;;;5.05;;
7359;SDS011;3720;48.274;7.796;2022-07-29T01:10:33;5.95;;;5.35;;
7359;SDS011;3720;48.274;7.796;2022-07-29T01:13:09;7.43;;;5.28;;
7359;SDS011;3720;48.274;7.796;2022-07-29T01:15:43;6.93;;;5.60;;
7359;SDS011;3720;48.274;7.796;2022-07-29T01:18:18;6.07;;;5.40;;
7359;SDS011;3720;48.274;7.796;2022-07-29T01:21:00;5.63;;;5.03;;
7359;SDS011;3720;48.274;7.796;2022-07-29T01:23:59;7.40;;;5.10;;
7359;SDS011;3720;48.274;7.796;2022-07-29T01:26:44;7.07;;;5.20;;
7359;SDS011;3720;48.274;7.796;2022-07-29T01:29:23;6.90;;;4.88;;
7359;SDS011;3720;48.274;7.796;2022-07-29T01:31:59;7.05;;;5.18;;
7359;SDS011;3720;48.274;7.796;2022-07-29T01:34:37;6.70;;;5.07;;
7359;SDS011;3720;48.274;7.796;2022-07-29T01:37:15;7.22;;;5.20;;
7359;SDS011;3720;48.274;7.796;2022-07-29T01:39:52;6.53;;;4.75;;
7359;SDS011;3720;48.274;7.796;2022-07-29T01:42:27;6.07;;;5.22;;
7359;SDS011;3720;48.274;7.796;2022-07-29T01:45:06;6.38;;;4.95;;
7359;SDS011;3720;48.274;7.796;2022-07-29T01:47:44;6.15;;;5.13;;
7359;SDS011;3720;48.274;7.796;2022-07-29T01:50:26;5.68;;;4.82;;
7359;SDS011;3720;48.274;7.796;2022-07-29T01:53:04;5.25;;;4.72;;
7359;SDS011;3720;48.274;7.796;2022-07-29T01:55:38;6.60;;;5.00;;
7359;SDS011;3720;48.274;7.796;2022-07-29T01:58:13;6.13;;;5.23;;
7359;SDS011;3720;48.274;7.796;2022-07-29T02:00:50;5.60;;;5.00;;
7359;SDS011;3720;48.274;7.796;2022-07-29T02:03:23;6.50;;;4.95;;
7359;SDS011;3720;48.274;7.796;2022-07-29T02:05:57;5.88;;;5.10;;
7359;SDS011;3720;48.274;7.796;2022-07-29T02:08:31;6.45;;;5.47;;
7359;SDS011;3720;48.274;7.796;2022-07-29T02:11:05;7.50;;;5.03;;
7359;SDS011;3720;48.274;7.796;2022-07-29T02:13:39;6.22;;;5.20;;
7359;SDS011;3720;48.274;7.796;2022-07-29T02:16:14;5.45;;;4.90;;
7359;SDS011;3720;48.274;7.796;2022-07-29T02:18:52;5.95;;;5.10;;
7359;SDS011;3720;48.274;7.796;2022-07-29T02:21:26;6.25;;;5.07;;
7359;SDS011;3720;48.274;7.796;2022-07-29T02:24:01;5.55;;;4.95;;
7359;SDS011;3720;48.274;7.796;2022-07-29T02:26:35;5.72;;;5.13;;
7359;SDS011;3720;48.274;7.796;2022-07-29T02:29:08;5.60;;;5.10;;
7359;SDS011;3720;48.274;7.796;2022-07-29T02:31:44;5.68;;;5.03;;
7359;SDS011;3720;48.274;7.796;2022-07-29T02:34:19;6.70;;;5.20;;
7359;SDS011;3720;48.274;7.796;2022-07-29T02:36:52;6.03;;;5.25;;
7359;SDS011;3720;48.274;7.796;2022-07-29T02:39:27;6.80;;;4.90;;
7359;SDS011;3720;48.274;7.796;2022-07-29T02:42:02;7.13;;;5.20;;
7359;SDS011;3720;48.274;7.796;2022-07-29T02:44:38;6.53;;;4.78;;
7359;SDS011;3720;48.274;7.796;2022-07-29T02:47:13;7.78;;;5.20;;
7359;SDS011;3720;48.274;7.796;2022-07-29T02:49:52;7.40;;;5.13;;
7359;SDS011;3720;48.274;7.796;2022-07-29T02:52:30;6.70;;;4.80;;
7359;SDS011;3720;48.274;7.796;2022-07-29T02:55:07;6.55;;;4.97;;
7359;SDS011;3720;48.274;7.796;2022-07-29T02:57:46;7.82;;;5.28;;
7359;SDS011;3720;48.274;7.796;2022-07-29T03:00:23;8.20;;;5.18;;
7359;SDS011;3720;48.274;7.796;2022-07-29T03:02:59;6.20;;;5.20;;
7359;SDS011;3720;48.274;7.796;2022-07-29T03:05:35;7.25;;;5.60;;
7359;SDS011;3720;48.274;7.796;2022-07-29T03:08:08;8.68;;;5.22;;
7359;SDS011;3720;48.274;7.796;2022-07-29T03:10:42;7.53;;;5.82;;
7359;SDS011;3720;48.274;7.796;2022-07-29T03:13:15;7.20;;;5.60;;
7359;SDS011;3720;48.274;7.796;2022-07-29T03:15:48;8.52;;;5.90;;
7359;SDS011;3720;48.274;7.796;2022-07-29T03:18:22;8.63;;;5.50;;
7359;SDS011;3720;48.274;7.796;2022-07-29T03:20:54;6.32;;;5.53;;
7359;SDS011;3720;48.274;7.796;2022-07-29T03:23:26;8.23;;;6.00;;
7359;SDS011;3720;48.274;7.796;2022-07-29T03:25:58;6.03;;;5.15;;
7359;SDS011;3720;48.274;7.796;2022-07-29T03:28:30;7.40;;;5.60;;
7359;SDS011;3720;48.274;7.796;2022-07-29T03:31:02;9.27;;;6.43;;
7359;SDS011;3720;48.274;7.796;2022-07-29T03:33:36;6.60;;;5.65;;
7359;SDS011;3720;48.274;7.796;2022-07-29T03:36:08;6.63;;;5.65;;
7359;SDS011;3720;48.274;7.796;2022-07-29T03:38:40;7.55;;;5.45;;
7359;SDS011;3720;48.274;7.796;2022-07-29T03:41:15;9.30;;;6.07;;
7359;SDS011;3720;48.274;7.796;2022-07-29T03:43:49;5.95;;;5.35;;
7359;SDS011;3720;48.274;7.796;2022-07-29T03:46:23;6.88;;;5.97;;
7359;SDS011;3720;48.274;7.796;2022-07-29T03:48:59;6.60;;;5.57;;
7359;SDS011;3720;48.274;7.796;2022-07-29T03:51:34;7.03;;;5.80;;
7359;SDS011;3720;48.274;7.796;2022-07-29T03:54:06;8.48;;;5.93;;
7359;SDS011;3720;48.274;7.796;2022-07-29T03:56:39;6.60;;;5.53;;
7359;SDS011;3720;48.274;7.796;2022-07-29T03:59:16;6.93;;;6.05;;
7359;SDS011;3720;48.274;7.796;2022-07-29T04:01:50;6.57;;;5.15;;
7359;SDS011;3720;48.274;7.796;2022-07-29T04:04:24;8.63;;;5.20;;
7359;SDS011;3720;48.274;7.796;2022-07-29T04:06:56;6.82;;;5.35;;
7359;SDS011;3720;48.274;7.796;2022-07-29T04:09:28;8.27;;;5.60;;
7359;SDS011;3720;48.274;7.796;2022-07-29T04:12:00;7.90;;;5.60;;
7359;SDS011;3720;48.274;7.796;2022-07-29T04:14:33;6.40;;;5.40;;
7359;SDS011;3720;48.274;7.796;2022-07-29T04:17:05;8.60;;;5.97;;
7359;SDS011;3720;48.274;7.796;2022-07-29T04:19:39;8.13;;;5.80;;
7359;SDS011;3720;48.274;7.796;2022-07-29T04:22:11;6.65;;;5.55;;
7359;SDS011;3720;48.274;7.796;2022-07-29T04:24:43;8.85;;;5.60;;
7359;SDS011;3720;48.274;7.796;2022-07-29T04:27:15;8.00;;;5.75;;
7359;SDS011;3720;48.274;7.796;2022-07-29T04:29:47;7.65;;;5.43;;
7359;SDS011;3720;48.274;7.796;2022-07-29T04:32:19;6.22;;;5.30;;
7359;SDS011;3720;48.274;7.796;2022-07-29T04:34:52;6.22;;;5.40;;
7359;SDS011;3720;48.274;7.796;2022-07-29T04:37:24;6.45;;;5.50;;
7359;SDS011;3720;48.274;7.796;2022-07-29T04:39:56;5.78;;;5.13;;
7359;SDS011;3720;48.274;7.796;2022-07-29T04:42:28;5.75;;;5.10;;
7359;SDS011;3720;48.274;7.796;2022-07-29T04:45:00;7.40;;;5.03;;
7359;SDS011;3720;48.274;7.796;2022-07-29T04:47:32;6.50;;;5.15;;
7359;SDS011;3720;48.274;7.796;2022-07-29T04:50:06;8.20;;;5.55;;
7359;SDS011;3720;48.274;7.796;2022-07-29T04:52:40;9.32;;;4.70;;
7359;SDS011;3720;48.274;7.796;2022-07-29T04:55:12;5.70;;;4.93;;
7359;SDS011;3720;48.274;7.796;2022-07-29T04:57:44;5.80;;;4.60;;
7359;SDS011;3720;48.274;7.796;2022-07-29T05:00:15;7.70;;;5.07;;
7359;SDS011;3720;48.274;7.796;2022-07-29T05:02:48;7.35;;;4.55;;
7359;SDS011;3720;48.274;7.796;2022-07-29T05:05:22;7.40;;;5.25;;
7359;SDS011;3720;48.274;7.796;2022-07-29T05:07:53;6.47;;;5.22;;
7359;SDS011;3720;48.274;7.796;2022-07-29T05:10:26;5.63;;;4.70;;
7359;SDS011;3720;48.274;7.796;2022-07-29T05:12:58;6.30;;;4.60;;
7359;SDS011;3720;48.274;7.796;2022-07-29T05:15:31;8.35;;;5.75;;
7359;SDS011;3720;48.274;7.796;2022-07-29T05:18:03;5.63;;;4.75;;
7359;SDS011;3720;48.274;7.796;2022-07-29T05:20:37;7.90;;;5.47;;
7359;SDS011;3720;48.274;7.796;2022-07-29T05:23:09;7.93;;;5.63;;
7359;SDS011;3720;48.274;7.796;2022-07-29T05:25:42;7.72;;;5.93;;
7359;SDS011;3720;48.274;7.796;2022-07-29T05:28:14;9.98;;;5.35;;
7359;SDS011;3720;48.274;7.796;2022-07-29T05:30:47;7.80;;;5.90;;
7359;SDS011;3720;48.274;7.796;2022-07-29T05:33:19;7.60;;;5.97;;
7359;SDS011;3720;48.274;7.796;2022-07-29T05:35:52;7.13;;;5.63;;
7359;SDS011;3720;48.274;7.796;2022-07-29T05:38:24;8.55;;;5.93;;
7359;SDS011;3720;48.274;7.796;2022-07-29T05:40:57;10.23;;;6.03;;
7359;SDS011;3720;48.274;7.796;2022-07-29T05:43:29;6.85;;;5.80;;
7359;SDS011;3720;48.274;7.796;2022-07-29T05:46:02;8.27;;;5.72;;
7359;SDS011;3720;48.274;7.796;2022-07-29T05:48:34;5.65;;;5.10;;
7359;SDS011;3720;48.274;7.796;2022-07-29T05:51:07;7.45;;;5.38;;
7359;SDS011;3720;48.274;7.796;2022-07-29T05:53:40;8.00;;;5.10;;
7359;SDS011;3720;48.274;7.796;2022-07-29T05:56:12;8.75;;;5.22;;
7359;SDS011;3720;48.274;7.796;2022-07-29T05:58:44;5.60;;;4.82;;
7359;SDS011;3720;48.274;7.796;2022-07-29T06:01:16;8.45;;;4.80;;
7359;SDS011;3720;48.274;7.796;2022-07-29T06:03:49;6.72;;;4.80;;
7359;SDS011;3720;48.274;7.796;2022-07-29T06:06:22;6.07;;;4.70;;
7359;SDS011;3720;48.274;7.796;2022-07-29T06:08:54;7.90;;;5.28;;
7359;SDS011;3720;48.274;7.796;2022-07-29T06:11:27;7.28;;;4.63;;
7359;SDS011;3720;48.274;7.796;2022-07-29T06:13:59;7.80;;;4.38;;
7359;SDS011;3720;48.274;7.796;2022-07-29T06:16:33;9.60;;;4.60;;
7359;SDS011;3720;48.274;7.796;2022-07-29T06:19:04;8.05;;;4.40;;
7359;SDS011;3720;48.274;7.796;2022-07-29T06:21:38;7.43;;;4.85;;
7359;SDS011;3720;48.274;7.796;2022-07-29T06:24:13;7.53;;;4.60;;
7359;SDS011;3720;48.274;7.796;2022-07-29T06:26:47;7.07;;;4.63;;
7359;SDS011;3720;48.274;7.796;2022-07-29T06:29:19;6.03;;;4.53;;
7359;SDS011;3720;48.274;7.796;2022-07-29T06:31:51;10.80;;;5.15;;
7359;SDS011;3720;48.274;7.796;2022-07-29T06:34:23;5.90;;;4.75;;
7359;SDS011;3720;48.274;7.796;2022-07-29T06:36:57;7.43;;;4.75;;
7359;SDS011;3720;48.274;7.796;2022-07-29T06:39:28;11.07;;;4.55;;
7359;SDS011;3720;48.274;7.796;2022-07-29T06:42:01;7.55;;;4.20;;
7359;SDS011;3720;48.274;7.796;2022-07-29T06:44:33;5.85;;;4.18;;
7359;SDS011;3720;48.274;7.796;2022-07-29T06:47:04;6.47;;;3.47;;
7359;SDS011;3720;48.274;7.796;2022-07-29T06:49:37;6.05;;;3.15;;
7359;SDS011;3720;48.274;7.796;2022-07-29T06:52:10;7.28;;;3.65;;
7359;SDS011;3720;48.274;7.796;2022-07-29T06:54:42;8.15;;;3.25;;
7359;SDS011;3720;48.274;7.796;2022-07-29T06:57:18;4.07;;;3.30;;
7359;SDS011;3720;48.274;7.796;2022-07-29T06:59:50;7.97;;;3.22;;
7359;SDS011;3720;48.274;7.796;2022-07-29T07:02:22;7.50;;;3.25;;
7359;SDS011;3720;48.274;7.796;2022-07-29T07:04:54;5.20;;;3.20;;
7359;SDS011;3720;48.274;7.796;2022-07-29T07:07:28;5.70;;;3.33;;
7359;SDS011;3720;48.274;7.796;2022-07-29T07:09:59;6.82;;;3.42;;
7359;SDS011;3720;48.274;7.796;2022-07-29T07:12:32;6.65;;;3.15;;
7359;SDS011;3720;48.274;7.796;2022-07-29T07:15:04;5.55;;;3.13;;
7359;SDS011;3720;48.274;7.796;2022-07-29T07:17:37;4.05;;;2.80;;
7359;SDS011;3720;48.274;7.796;2022-07-29T07:20:09;6.53;;;3.28;;
7359;SDS011;3720;48.274;7.796;2022-07-29T07:22:43;6.95;;;3.30;;
7359;SDS011;3720;48.274;7.796;2022-07-29T07:25:15;5.97;;;3.35;;
7359;SDS011;3720;48.274;7.796;2022-07-29T07:27:48;6.80;;;3.72;;
7359;SDS011;3720;48.274;7.796;2022-07-29T07:30:20;7.68;;;3.58;;
7359;SDS011;3720;48.274;7.796;2022-07-29T07:32:52;6.85;;;3.55;;
7359;SDS011;3720;48.274;7.796;2022-07-29T07:35:25;6.85;;;3.53;;
7359;SDS011;3720;48.274;7.796;2022-07-29T07:37:59;6.00;;;3.40;;
7359;SDS011;3720;48.274;7.796;2022-07-29T07:40:32;11.70;;;3.75;;
7359;SDS011;3720;48.274;7.796;2022-07-29T07:43:04;5.93;;;3.65;;
7359;SDS011;3720;48.274;7.796;2022-07-29T07:45:36;7.07;;;3.58;;
7359;SDS011;3720;48.274;7.796;2022-07-29T07:48:10;9.10;;;3.50;;
7359;SDS011;3720;48.274;7.796;2022-07-29T07:50:41;5.22;;;3.35;;
7359;SDS011;3720;48.274;7.796;2022-07-29T07:53:16;5.45;;;3.70;;
7359;SDS011;3720;48.274;7.796;2022-07-29T07:55:48;5.55;;;3.63;;
7359;SDS011;3720;48.274;7.796;2022-07-29T07:58:20;7.57;;;3.25;;
7359;SDS011;3720;48.274;7.796;2022-07-29T08:00:52;6.55;;;3.70;;
7359;SDS011;3720;48.274;7.796;2022-07-29T08:03:24;4.80;;;3.30;;
7359;SDS011;3720;48.274;7.796;2022-07-29T08:05:56;5.28;;;3.72;;
7359;SDS011;3720;48.274;7.796;2022-07-29T08:08:30;7.20;;;3.88;;
7359;SDS011;3720;48.274;7.796;2022-07-29T08:11:02;4.97;;;3.60;;
7359;SDS011;3720;48.274;7.796;2022-07-29T08:13:36;6.10;;;3.80;;
7359;SDS011;3720;48.274;7.796;2022-07-29T08:16:09;10.27;;;3.53;;
7359;SDS011;3720;48.274;7.796;2022-07-29T08:18:45;7.63;;;3.50;;
7359;SDS011;3720;48.274;7.796;2022-07-29T08:21:18;6.10;;;3.40;;
7359;SDS011;3720;48.274;7.796;2022-07-29T08:23:51;8.57;;;3.60;;
7359;SDS011;3720;48.274;7.796;2022-07-29T08:26:43;8.05;;;3.75;;
7359;SDS011;3720;48.274;7.796;2022-07-29T08:29:16;6.63;;;3.53;;
7359;SDS011;3720;48.274;7.796;2022-07-29T08:31:48;5.93;;;3.38;;
7359;SDS011;3720;48.274;7.796;2022-07-29T08:34:20;8.80;;;3.53;;
7359;SDS011;3720;48.274;7.796;2022-07-29T08:36:52;5.50;;;3.40;;
7359;SDS011;3720;48.274;7.796;2022-07-29T08:39:25;6.00;;;3.38;;
7359;SDS011;3720;48.274;7.796;2022-07-29T08:41:57;3.72;;;3.22;;
7359;SDS011;3720;48.274;7.796;2022-07-29T08:44:30;4.13;;;3.53;;
7359;SDS011;3720;48.274;7.796;2022-07-29T08:47:04;8.75;;;3.45;;
7359;SDS011;3720;48.274;7.796;2022-07-29T08:49:37;6.90;;;3.38;;
7359;SDS011;3720;48.274;7.796;2022-07-29T08:52:10;7.50;;;3.65;;
7359;SDS011;3720;48.274;7.796;2022-07-29T08:54:44;6.07;;;3.45;;
7359;SDS011;3720;48.274;7.796;2022-07-29T08:57:16;5.25;;;3.50;;
7359;SDS011;3720;48.274;7.796;2022-07-29T08:59:49;5.95;;;3.72;;
7359;SDS011;3720;48.274;7.796;2022-07-29T09:02:23;5.88;;;3.30;;
7359;SDS011;3720;48.274;7.796;2022-07-29T09:04:59;10.40;;;3.33;;
7359;SDS011;3720;48.274;7.796;2022-07-29T09:07:33;8.70;;;3.30;;
7359;SDS011;3720;48.274;7.796;2022-07-29T09:10:08;6.50;;;3.35;;
7359;SDS011;3720;48.274;7.796;2022-07-29T09:12:41;6.73;;;3.40;;
7359;SDS011;3720;48.274;7.796;2022-07-29T09:15:13;7.80;;;3.97;;
7359;SDS011;3720;48.274;7.796;2022-07-29T09:17:46;8.35;;;3.55;;
7359;SDS011;3720;48.274;7.796;2022-07-29T09:20:20;4.57;;;3.40;;
7359;SDS011;3720;48.274;7.796;2022-07-29T09:22:53;6.80;;;3.38;;
7359;SDS011;3720;48.274;7.796;2022-07-29T09:25:33;6.60;;;3.50;;
7359;SDS011;3720;48.274;7.796;2022-07-29T09:28:06;5.95;;;3.30;;
7359;SDS011;3720;48.274;7.796;2022-07-29T09:30:49;6.07;;;3.60;;
7359;SDS011;3720;48.274;7.796;2022-07-29T09:33:22;8.55;;;3.42;;
7359;SDS011;3720;48.274;7.796;2022-07-29T09:35:59;5.25;;;3.40;;
7359;SDS011;3720;48.274;7.796;2022-07-29T09:38:34;5.13;;;3.08;;
7359;SDS011;3720;48.274;7.796;2022-07-29T09:41:09;5.25;;;3.17;;
7359;SDS011;3720;48.274;7.796;2022-07-29T09:43:41;6.68;;;3.20;;
7359;SDS011;3720;48.274;7.796;2022-07-29T09:46:25;6.10;;;3.38;;
7359;SDS011;3720;48.274;7.796;2022-07-29T09:49:07;5.57;;;3.20;;
7359;SDS011;3720;48.274;7.796;2022-07-29T09:51:40;7.03;;;3.55;;
7359;SDS011;3720;48.274;7.796;2022-07-29T09:54:21;6.68;;;3.17;;
7359;SDS011;3720;48.274;7.796;2022-07-29T09:56:55;9.55;;;3.30;;
7359;SDS011;3720;48.274;7.796;2022-07-29T09:59:27;9.35;;;3.53;;
7359;SDS011;3720;48.274;7.796;2022-07-29T10:02:00;6.57;;;3.63;;
7359;SDS011;3720;48.274;7.796;2022-07-29T10:04:39;6.20;;;3.00;;
7359;SDS011;3720;48.274;7.796;2022-07-29T10:07:12;6.47;;;3.33;;
7359;SDS011;3720;48.274;7.796;2022-07-29T10:09:49;4.57;;;3.28;;
7359;SDS011;3720;48.274;7.796;2022-07-29T10:12:25;3.90;;;3.13;;
7359;SDS011;3720;48.274;7.796;2022-07-29T10:14:57;10.25;;;3.40;;
7359;SDS011;3720;48.274;7.796;2022-07-29T10:17:32;7.07;;;3.50;;
7359;SDS011;3720;48.274;7.796;2022-07-29T10:20:05;6.75;;;3.42;;
7359;SDS011;3720;48.274;7.796;2022-07-29T10:22:38;5.03;;;3.30;;
7359;SDS011;3720;48.274;7.796;2022-07-29T10:25:12;8.13;;;3.50;;
7359;SDS011;3720;48.274;7.796;2022-07-29T10:27:47;7.15;;;3.20;;
7359;SDS011;3720;48.274;7.796;2022-07-29T10:30:21;4.32;;;2.85;;
7359;SDS011;3720;48.274;7.796;2022-07-29T10:36:02;5.38;;;2.90;;
7359;SDS011;3720;48.274;7.796;2022-07-29T10:38:44;4.05;;;3.03;;
7359;SDS011;3720;48.274;7.796;2022-07-29T10:41:27;4.43;;;3.17;;
7359;SDS011;3720;48.274;7.796;2022-07-29T10:44:20;6.78;;;3.17;;
7359;SDS011;3720;48.274;7.796;2022-07-29T10:46:54;4.45;;;2.97;;
7359;SDS011;3720;48.274;7.796;2022-07-29T10:49:27;4.70;;;3.30;;
7359;SDS011;3720;48.274;7.796;2022-07-29T10:52:01;4.57;;;3.10;;
7359;SDS011;3720;48.274;7.796;2022-07-29T10:54:42;8.02;;;3.28;;
7359;SDS011;3720;48.274;7.796;2022-07-29T10:57:21;4.90;;;3.03;;
7359;SDS011;3720;48.274;7.796;2022-07-29T11:02:59;6.10;;;3.22;;
7359;SDS011;3720;48.274;7.796;2022-07-29T11:05:40;7.60;;;3.03;;
7359;SDS011;3720;48.274;7.796;2022-07-29T11:08:24;4.70;;;3.00;;
7359;SDS011;3720;48.274;7.796;2022-07-29T11:14:10;4.68;;;3.08;;
7359;SDS011;3720;48.274;7.796;2022-07-29T11:17:00;4.63;;;2.90;;
7359;SDS011;3720;48.274;7.796;2022-07-29T11:19:34;4.32;;;3.08;;
7359;SDS011;3720;48.274;7.796;2022-07-29T11:22:09;5.45;;;3.10;;
7359;SDS011;3720;48.274;7.796;2022-07-29T11:24:41;6.65;;;2.95;;
7359;SDS011;3720;48.274;7.796;2022-07-29T11:27:14;7.78;;;3.30;;
7359;SDS011;3720;48.274;7.796;2022-07-29T11:29:51;7.32;;;3.10;;
7359;SDS011;3720;48.274;7.796;2022-07-29T11:32:35;6.78;;;3.00;;
7359;SDS011;3720;48.274;7.796;2022-07-29T11:35:11;7.15;;;3.22;;
7359;SDS011;3720;48.274;7.796;2022-07-29T11:38:23;3.95;;;2.80;;
7359;SDS011;3720;48.274;7.796;2022-07-29T11:43:54;6.22;;;2.78;;
7359;SDS011;3720;48.274;7.796;2022-07-29T11:46:44;6.90;;;2.90;;
7359;SDS011;3720;48.274;7.796;2022-07-29T11:49:19;4.43;;;2.58;;
7359;SDS011;3720;48.274;7.796;2022-07-29T11:51:52;8.18;;;3.03;;
7359;SDS011;3720;48.274;7.796;2022-07-29T11:54:25;7.75;;;3.00;;
7359;SDS011;3720;48.274;7.796;2022-07-29T11:57:00;6.18;;;2.88;;
7359;SDS011;3720;48.274;7.796;2022-07-29T11:59:32;5.60;;;2.67;;
7359;SDS011;3720;48.274;7.796;2022-07-29T12:02:11;6.20;;;3.10;;
7359;SDS011;3720;48.274;7.796;2022-07-29T12:04:48;4.22;;;3.00;;
7359;SDS011;3720;48.274;7.796;2022-07-29T12:07:26;5.18;;;3.00;;
7359;SDS011;3720;48.274;7.796;2022-07-29T12:09:58;4.05;;;2.90;;
7359;SDS011;3720;48.274;7.796;2022-07-29T12:12:32;5.63;;;2.90;;
7359;SDS011;3720;48.274;7.796;2022-07-29T12:15:14;6.35;;;3.00;;
7359;SDS011;3720;48.274;7.796;2022-07-29T12:17:49;5.82;;;2.92;;
7359;SDS011;3720;48.274;7.796;2022-07-29T12:20:22;4.40;;;2.80;;
7359;SDS011;3720;48.274;7.796;2022-07-29T12:22:55;4.38;;;2.70;;
7359;SDS011;3720;48.274;7.796;2022-07-29T12:25:27;6.72;;;3.00;;
7359;SDS011;3720;48.274;7.796;2022-07-29T12:28:07;5.18;;;2.75;;
7359;SDS011;3720;48.274;7.796;2022-07-29T12:30:41;4.85;;;2.88;;
7359;SDS011;3720;48.274;7.796;2022-07-29T12:33:17;7.07;;;2.78;;
7359;SDS011;3720;48.274;7.796;2022-07-29T12:35:51;6.40;;;2.60;;
7359;SDS011;3720;48.274;7.796;2022-07-29T12:38:26;5.15;;;2.40;;
7359;SDS011;3720;48.274;7.796;2022-07-29T12:40:58;4.70;;;2.83;;
7359;SDS011;3720;48.274;7.796;2022-07-29T12:43:32;4.28;;;2.83;;
7359;SDS011;3720;48.274;7.796;2022-07-29T12:46:11;7.95;;;2.70;;
7359;SDS011;3720;48.274;7.796;2022-07-29T12:48:44;4.78;;;2.70;;
7359;SDS011;3720;48.274;7.796;2022-07-29T12:51:16;5.18;;;2.70;;
7359;SDS011;3720;48.274;7.796;2022-07-29T12:54:01;4.70;;;3.00;;
7359;SDS011;3720;48.274;7.796;2022-07-29T12:56:35;4.88;;;2.90;;
7359;SDS011;3720;48.274;7.796;2022-07-29T12:59:12;6.32;;;2.97;;
7359;SDS011;3720;48.274;7.796;2022-07-29T13:01:47;6.75;;;2.80;;
7359;SDS011;3720;48.274;7.796;2022-07-29T13:04:24;5.75;;;2.88;;
7359;SDS011;3720;48.274;7.796;2022-07-29T13:06:58;7.22;;;2.90;;
7359;SDS011;3720;48.274;7.796;2022-07-29T13:09:37;4.95;;;3.10;;
7359;SDS011;3720;48.274;7.796;2022-07-29T13:12:13;7.63;;;3.05;;
7359;SDS011;3720;48.274;7.796;2022-07-29T13:14:47;4.45;;;3.10;;
7359;SDS011;3720;48.274;7.796;2022-07-29T13:17:20;6.72;;;3.40;;
7359;SDS011;3720;48.274;7.796;2022-07-29T13:20:04;8.45;;;3.38;;
7359;SDS011;3720;48.274;7.796;2022-07-29T13:22:39;5.93;;;3.33;;
7359;SDS011;3720;48.274;7.796;2022-07-29T13:25:12;5.45;;;2.92;;
7359;SDS011;3720;48.274;7.796;2022-07-29T13:27:44;6.10;;;3.20;;
7359;SDS011;3720;48.274;7.796;2022-07-29T13:30:18;5.32;;;3.05;;
7359;SDS011;3720;48.274;7.796;2022-07-29T13:32:50;6.30;;;3.05;;
7359;SDS011;3720;48.274;7.796;2022-07-29T13:35:24;9.80;;;3.50;;
7359;SDS011;3720;48.274;7.796;2022-07-29T13:37:59;7.45;;;3.22;;
7359;SDS011;3720;48.274;7.796;2022-07-29T13:40:31;6.05;;;2.75;;
7359;SDS011;3720;48.274;7.796;2022-07-29T13:43:05;5.93;;;3.10;;
7359;SDS011;3720;48.274;7.796;2022-07-29T13:45:41;4.57;;;2.97;;
7359;SDS011;3720;48.274;7.796;2022-07-29T13:48:13;6.70;;;3.10;;
7359;SDS011;3720;48.274;7.796;2022-07-29T13:50:45;3.83;;;3.03;;
7359;SDS011;3720;48.274;7.796;2022-07-29T13:53:18;8.68;;;3.10;;
7359;SDS011;3720;48.274;7.796;2022-07-29T13:55:49;11.40;;;3.25;;
7359;SDS011;3720;48.274;7.796;2022-07-29T13:58:21;9.48;;;3.40;;
7359;SDS011;3720;48.274;7.796;2022-07-29T14:00:56;10.10;;;3.22;;
7359;SDS011;3720;48.274;7.796;2022-07-29T14:03:28;9.38;;;3.28;;
7359;SDS011;3720;48.274;7.796;2022-07-29T14:06:01;9.30;;;3.28;;
7359;SDS011;3720;48.274;7.796;2022-07-29T14:08:33;3.78;;;2.80;;
7359;SDS011;3720;48.274;7.796;2022-07-29T14:11:06;8.45;;;3.35;;
7359;SDS011;3720;48.274;7.796;2022-07-29T14:13:38;5.05;;;3.20;;
7359;SDS011;3720;48.274;7.796;2022-07-29T14:16:11;6.65;;;3.10;;
7359;SDS011;3720;48.274;7.796;2022-07-29T14:18:43;5.10;;;2.90;;
7359;SDS011;3720;48.274;7.796;2022-07-29T14:21:16;5.90;;;2.78;;
7359;SDS011;3720;48.274;7.796;2022-07-29T14:23:48;4.13;;;2.67;;
7359;SDS011;3720;48.274;7.796;2022-07-29T14:26:22;6.45;;;2.80;;
7359;SDS011;3720;48.274;7.796;2022-07-29T14:28:54;5.15;;;3.20;;
7359;SDS011;3720;48.274;7.796;2022-07-29T14:31:28;6.65;;;2.72;;
7359;SDS011;3720;48.274;7.796;2022-07-29T14:34:00;4.35;;;2.63;;
7359;SDS011;3720;48.274;7.796;2022-07-29T14:36:32;7.65;;;2.90;;
7359;SDS011;3720;48.274;7.796;2022-07-29T14:39:04;3.83;;;2.60;;
7359;SDS011;3720;48.274;7.796;2022-07-29T14:41:36;3.90;;;2.70;;
7359;SDS011;3720;48.274;7.796;2022-07-29T14:44:08;6.90;;;2.60;;
7359;SDS011;3720;48.274;7.796;2022-07-29T14:46:42;6.40;;;2.83;;
7359;SDS011;3720;48.274;7.796;2022-07-29T14:49:14;4.47;;;2.97;;
7359;SDS011;3720;48.274;7.796;2022-07-29T14:51:46;6.10;;;3.20;;
7359;SDS011;3720;48.274;7.796;2022-07-29T14:54:18;6.60;;;3.40;;
7359;SDS011;3720;48.274;7.796;2022-07-29T14:56:50;14.20;;;6.15;;
7359;SDS011;3720;48.274;7.796;2022-07-29T14:59:26;11.00;;;3.00;;
7359;SDS011;3720;48.274;7.796;2022-07-29T15:02:00;6.00;;;3.00;;
7359;SDS011;3720;48.274;7.796;2022-07-29T15:04:32;7.80;;;3.72;;
7359;SDS011;3720;48.274;7.796;2022-07-29T15:07:04;7.45;;;3.03;;
7359;SDS011;3720;48.274;7.796;2022-07-29T15:09:36;4.88;;;2.78;;
7359;SDS011;3720;48.274;7.796;2022-07-29T15:12:08;4.65;;;2.55;;
7359;SDS011;3720;48.274;7.796;2022-07-29T15:14:41;6.38;;;2.50;;
7359;SDS011;3720;48.274;7.796;2022-07-29T15:17:14;6.70;;;2.70;;
7359;SDS011;3720;48.274;7.796;2022-07-29T15:19:46;6.55;;;2.63;;
7359;SDS011;3720;48.274;7.796;2022-07-29T15:22:18;11.55;;;3.03;;
7359;SDS011;3720;48.274;7.796;2022-07-29T15:24:50;6.70;;;2.70;;
7359;SDS011;3720;48.274;7.796;2022-07-29T15:27:23;6.72;;;2.70;;
7359;SDS011;3720;48.274;7.796;2022-07-29T15:29:55;5.40;;;2.55;;
7359;SDS011;3720;48.274;7.796;2022-07-29T15:32:29;4.05;;;2.15;;
7359;SDS011;3720;48.274;7.796;2022-07-29T15:35:00;9.52;;;2.60;;
7359;SDS011;3720;48.274;7.796;2022-07-29T15:37:33;5.25;;;2.20;;
7359;SDS011;3720;48.274;7.796;2022-07-29T15:40:05;3.65;;;2.17;;
7359;SDS011;3720;48.274;7.796;2022-07-29T15:42:38;3.85;;;2.15;;
7359;SDS011;3720;48.274;7.796;2022-07-29T15:45:10;6.70;;;2.33;;
7359;SDS011;3720;48.274;7.796;2022-07-29T15:47:43;5.55;;;2.10;;
7359;SDS011;3720;48.274;7.796;2022-07-29T15:50:16;5.93;;;2.13;;
7359;SDS011;3720;48.274;7.796;2022-07-29T15:52:49;4.05;;;2.20;;
7359;SDS011;3720;48.274;7.796;2022-07-29T15:55:21;5.47;;;2.15;;
7359;SDS011;3720;48.274;7.796;2022-07-29T15:57:53;8.98;;;2.05;;
7359;SDS011;3720;48.274;7.796;2022-07-29T16:00:25;8.05;;;1.90;;
7359;SDS011;3720;48.274;7.796;2022-07-29T16:02:59;3.75;;;2.00;;
7359;SDS011;3720;48.274;7.796;2022-07-29T16:05:31;5.05;;;2.10;;
7359;SDS011;3720;48.274;7.796;2022-07-29T16:08:03;8.55;;;2.20;;
7359;SDS011;3720;48.274;7.796;2022-07-29T16:10:35;7.32;;;2.10;;